createdAt,value
2017-06-26T00:00:57.862Z,67.30
2017-06-26T00:03:26.058Z,66.90
2017-06-26T00:05:54.297Z,67.20
2017-06-26T00:08:22.667Z,67.10
2017-06-26T00:10:51.631Z,67.60
2017-06-26T00:13:19.838Z,67.60
2017-06-26T00:15:48.822Z,68.00
2017-06-26T00:18:17.216Z,68.00
2017-06-26T00:20:45.427Z,67.90
2017-06-26T00:23:13.615Z,68.30
2017-06-26T00:25:41.868Z,68.60
2017-06-26T00:28:10.146Z,68.30
2017-06-26T00:30:38.342Z,67.40
2017-06-26T00:33:06.562Z,68.00
2017-06-26T00:35:34.781Z,67.10
2017-06-26T00:38:03.023Z,67.90
2017-06-26T00:40:31.287Z,67.90
2017-06-26T00:42:59.597Z,68.70
2017-06-26T00:45:27.840Z,68.60
2017-06-26T00:47:56.834Z,68.60
2017-06-26T00:50:25.042Z,68.60
2017-06-26T00:52:53.310Z,68.70
2017-06-26T00:55:21.508Z,68.70
2017-06-26T00:57:49.855Z,69.30
2017-06-26T01:00:18.855Z,69.50
2017-06-26T01:02:47.034Z,69.50
2017-06-26T01:05:15.306Z,69.50
2017-06-26T01:07:44.397Z,70.20
2017-06-26T01:10:12.685Z,70.00
2017-06-26T01:12:40.896Z,70.00
2017-06-26T01:15:09.237Z,69.90
2017-06-26T01:17:38.234Z,70.40
2017-06-26T01:20:06.438Z,70.40
2017-06-26T01:22:34.675Z,70.40
2017-06-26T01:25:02.976Z,70.00
2017-06-26T01:27:31.233Z,71.00
2017-06-26T01:30:00.194Z,70.60
2017-06-26T01:32:28.438Z,70.60
2017-06-26T01:34:56.924Z,70.80
2017-06-26T01:37:25.138Z,71.00
2017-06-26T01:39:53.347Z,70.70
2017-06-26T01:42:21.534Z,71.40
2017-06-26T01:44:49.746Z,71.30
2017-06-26T01:47:17.937Z,71.10
2017-06-26T01:49:46.157Z,71.50
2017-06-26T01:52:14.354Z,71.00
2017-06-26T01:54:42.554Z,71.90
2017-06-26T01:57:10.811Z,71.00
2017-06-26T01:59:39.048Z,71.10
2017-06-26T02:02:07.311Z,71.60
2017-06-26T02:04:35.523Z,71.50
2017-06-26T02:07:03.727Z,71.50
2017-06-26T02:09:31.931Z,71.60
2017-06-26T02:12:00.277Z,71.70
2017-06-26T02:14:28.597Z,72.50
2017-06-26T02:16:56.813Z,71.70
2017-06-26T02:19:25.006Z,72.10
2017-06-26T02:21:53.219Z,72.30
2017-06-26T02:24:21.423Z,72.70
2017-06-26T02:26:49.690Z,72.40
2017-06-26T02:29:18.666Z,73.10
2017-06-26T02:31:46.867Z,73.10
2017-06-26T02:34:15.845Z,72.80
2017-06-26T02:36:44.238Z,73.40
2017-06-26T02:39:13.205Z,73.00
2017-06-26T02:41:41.410Z,73.00
2017-06-26T02:44:09.667Z,73.70
2017-06-26T02:46:37.886Z,73.10
2017-06-26T02:49:06.092Z,73.10
2017-06-26T02:51:34.300Z,73.40
2017-06-26T02:54:03.267Z,73.60
2017-06-26T02:56:31.462Z,73.60
2017-06-26T02:59:00.445Z,73.20
2017-06-26T03:01:28.644Z,73.20
2017-06-26T03:03:56.945Z,73.40
2017-06-26T03:06:25.200Z,73.20
2017-06-26T03:08:53.474Z,73.30
2017-06-26T03:11:22.457Z,73.10
2017-06-26T03:13:50.656Z,73.00
2017-06-26T03:16:18.893Z,73.40
2017-06-26T03:18:47.090Z,73.20
2017-06-26T03:21:15.283Z,73.00
2017-06-26T03:23:43.540Z,73.00
2017-06-26T03:26:11.753Z,73.10
2017-06-26T03:28:39.963Z,73.00
2017-06-26T03:31:08.162Z,73.50
2017-06-26T03:33:36.368Z,74.50
2017-06-26T03:36:04.585Z,73.60
2017-06-26T03:38:32.773Z,73.20
2017-06-26T03:41:01.045Z,73.30
2017-06-26T03:43:29.375Z,73.10
2017-06-26T03:45:57.636Z,73.30
2017-06-26T03:48:26.606Z,73.70
2017-06-26T03:50:55.027Z,73.70
2017-06-26T03:53:23.988Z,73.30
2017-06-26T03:55:52.194Z,73.30
2017-06-26T03:58:21.291Z,73.50
2017-06-26T04:00:50.388Z,73.70
2017-06-26T04:03:19.367Z,73.80
2017-06-26T04:05:47.579Z,73.70
2017-06-26T04:08:15.860Z,73.40
2017-06-26T04:10:44.044Z,73.10
2017-06-26T04:13:12.241Z,73.10
2017-06-26T04:15:40.453Z,73.70
2017-06-26T04:18:09.419Z,72.70
2017-06-26T04:20:37.641Z,72.70
2017-06-26T04:23:05.997Z,73.10
2017-06-26T04:25:34.208Z,72.90
2017-06-26T04:28:02.404Z,72.70
2017-06-26T04:30:30.626Z,72.40
2017-06-26T04:32:59.018Z,71.60
2017-06-26T04:35:27.984Z,71.40
2017-06-26T04:37:56.226Z,71.40
2017-06-26T04:40:24.472Z,71.90
2017-06-26T04:42:52.669Z,71.70
2017-06-26T04:45:20.886Z,71.80
2017-06-26T04:47:49.088Z,72.00
2017-06-26T04:50:17.379Z,72.20
2017-06-26T04:52:45.589Z,72.40
2017-06-26T04:55:13.846Z,71.50
2017-06-26T04:57:42.055Z,71.50
2017-06-26T05:00:10.391Z,71.60
2017-06-26T05:02:38.595Z,71.10
2017-06-26T05:05:06.818Z,71.10
2017-06-26T05:07:35.000Z,68.30
2017-06-26T05:10:03.214Z,67.40
2017-06-26T05:12:31.570Z,65.50
2017-06-26T05:15:00.530Z,62.10
2017-06-26T05:17:28.734Z,62.10
2017-06-26T05:19:57.704Z,59.40
2017-06-26T05:22:25.917Z,59.30
2017-06-26T05:24:54.114Z,59.40
2017-06-26T05:27:22.465Z,53.80
2017-06-26T05:29:50.741Z,48.80
2017-06-26T05:32:19.705Z,43.90
2017-06-26T05:34:47.924Z,43.80
2017-06-26T05:37:16.192Z,42.90
2017-06-26T05:39:44.463Z,41.50
2017-06-26T05:42:13.419Z,39.50
2017-06-26T05:44:41.834Z,38.80
2017-06-26T05:47:10.818Z,37.10
2017-06-26T05:49:39.009Z,36.90
2017-06-26T05:52:07.289Z,34.30
2017-06-26T05:54:35.498Z,35.20
2017-06-26T05:57:03.701Z,33.80
2017-06-26T05:59:31.896Z,35.00
2017-06-26T06:02:00.196Z,32.30
2017-06-26T06:04:29.155Z,32.10
2017-06-26T06:06:57.378Z,32.10
2017-06-26T06:09:25.646Z,29.60
2017-06-26T06:11:53.850Z,30.00
2017-06-26T06:14:22.042Z,29.70
2017-06-26T06:16:50.251Z,29.10
2017-06-26T06:19:18.541Z,28.40
2017-06-26T06:21:47.521Z,28.40
2017-06-26T06:24:15.731Z,28.40
2017-06-26T06:26:43.937Z,28.50
2017-06-26T06:29:12.189Z,29.80
2017-06-26T06:31:40.391Z,31.40
2017-06-26T06:34:08.604Z,31.20
2017-06-26T06:36:37.578Z,31.60
2017-06-26T06:39:05.775Z,31.10
2017-06-26T06:41:34.011Z,29.80
2017-06-26T06:44:02.226Z,30.10
2017-06-26T06:46:30.485Z,30.80
2017-06-26T06:48:58.667Z,33.60
2017-06-26T06:51:26.848Z,35.50
2017-06-26T06:53:55.064Z,38.40
2017-06-26T06:56:23.268Z,40.00
2017-06-26T06:58:51.565Z,41.70
2017-06-26T07:01:19.816Z,39.10
2017-06-26T07:03:48.074Z,36.60
2017-06-26T07:06:17.067Z,38.90
2017-06-26T07:08:45.297Z,38.90
2017-06-26T07:11:13.497Z,39.10
2017-06-26T07:13:41.705Z,39.80
2017-06-26T07:16:09.901Z,40.70
2017-06-26T07:18:38.176Z,41.80
2017-06-26T07:21:06.467Z,45.10
2017-06-26T07:23:34.707Z,42.10
2017-06-26T07:26:03.746Z,34.00
2017-06-26T07:28:31.942Z,33.80
2017-06-26T07:31:00.167Z,30.20
2017-06-26T07:33:29.121Z,32.90
2017-06-26T07:35:57.430Z,32.80
2017-06-26T07:38:25.631Z,36.50
2017-06-26T07:40:53.829Z,35.20
2017-06-26T07:43:22.043Z,33.40
2017-06-26T07:45:50.253Z,30.80
2017-06-26T07:48:18.466Z,32.50
2017-06-26T07:50:46.698Z,28.30
2017-06-26T07:53:14.897Z,28.40
2017-06-26T07:55:43.133Z,27.20
2017-06-26T07:58:12.097Z,29.60
2017-06-26T08:00:40.316Z,29.60
2017-06-26T08:03:08.528Z,31.90
2017-06-26T08:05:36.762Z,34.50
2017-06-26T08:08:04.959Z,31.20
2017-06-26T08:10:33.192Z,28.40
2017-06-26T08:13:01.398Z,27.90
2017-06-26T08:15:29.776Z,25.30
2017-06-26T08:17:58.044Z,23.30
2017-06-26T08:20:27.025Z,26.40
2017-06-26T08:22:55.233Z,26.30
2017-06-26T08:25:23.487Z,24.80
2017-06-26T08:27:52.589Z,24.30
2017-06-26T08:30:20.863Z,24.30
2017-06-26T08:32:49.846Z,27.20
2017-06-26T08:35:18.049Z,27.10
2017-06-26T08:37:46.240Z,26.10
2017-06-26T08:40:14.450Z,26.90
2017-06-26T08:42:42.669Z,24.60
2017-06-26T08:45:11.654Z,25.00
2017-06-26T08:47:39.853Z,24.90
2017-06-26T08:50:08.151Z,25.10
2017-06-26T08:52:36.361Z,25.30
2017-06-26T08:55:04.655Z,24.90
2017-06-26T08:57:33.639Z,25.30
2017-06-26T09:00:02.045Z,25.40
2017-06-26T09:02:31.016Z,24.90
2017-06-26T09:04:59.300Z,24.90
2017-06-26T09:07:27.489Z,26.30
2017-06-26T09:09:56.482Z,22.70
2017-06-26T09:12:24.676Z,22.60
2017-06-26T09:14:53.142Z,22.60
2017-06-26T09:17:22.121Z,20.90
2017-06-26T09:19:50.335Z,20.40
2017-06-26T09:22:18.599Z,20.40
2017-06-26T09:24:46.810Z,21.50
2017-06-26T09:27:15.035Z,23.10
2017-06-26T09:29:43.234Z,22.50
2017-06-26T09:32:11.454Z,19.60
2017-06-26T09:34:39.759Z,21.50
2017-06-26T09:37:08.750Z,23.40
2017-06-26T09:39:36.949Z,23.30
2017-06-26T09:42:05.931Z,26.10
2017-06-26T09:44:34.135Z,26.00
2017-06-26T09:47:02.425Z,25.70
2017-06-26T09:49:30.663Z,24.70
2017-06-26T09:51:58.949Z,22.90
2017-06-26T09:54:27.149Z,22.40
2017-06-26T09:56:55.363Z,22.50
2017-06-26T09:59:23.575Z,24.40
2017-06-26T10:01:52.539Z,28.10
2017-06-26T10:04:20.738Z,28.00
2017-06-26T10:06:49.042Z,27.20
2017-06-26T10:09:17.264Z,24.90
2017-06-26T10:11:45.572Z,24.80
2017-06-26T10:14:13.841Z,24.20
2017-06-26T10:16:42.051Z,25.30
2017-06-26T10:19:10.291Z,23.30
2017-06-26T10:21:38.479Z,23.10
2017-06-26T10:24:07.450Z,24.50
2017-06-26T10:26:35.674Z,24.50
2017-06-26T10:29:03.871Z,24.60
2017-06-26T10:31:32.071Z,24.00
2017-06-26T10:34:00.296Z,21.10
2017-06-26T10:36:28.501Z,21.80
2017-06-26T10:38:56.719Z,20.60
2017-06-26T10:41:24.918Z,21.90
2017-06-26T10:43:53.214Z,23.20
2017-06-26T10:46:21.434Z,23.40
2017-06-26T10:48:49.784Z,22.20
2017-06-26T10:51:17.991Z,22.00
2017-06-26T10:53:46.294Z,22.90
2017-06-26T10:56:14.573Z,23.10
2017-06-26T10:58:43.537Z,26.00
2017-06-26T11:01:11.750Z,25.90
2017-06-26T11:03:39.963Z,27.20
2017-06-26T11:06:08.178Z,29.20
2017-06-26T11:08:36.369Z,29.50
2017-06-26T11:11:05.478Z,30.40
2017-06-26T11:13:33.682Z,30.40
2017-06-26T11:16:01.887Z,30.80
2017-06-26T11:18:30.106Z,31.40
2017-06-26T11:20:58.401Z,31.50
2017-06-26T11:23:26.597Z,32.90
2017-06-26T11:25:54.799Z,32.80
2017-06-26T11:28:23.005Z,33.40
2017-06-26T11:30:51.971Z,32.50
2017-06-26T11:33:20.170Z,33.10
2017-06-26T11:35:49.142Z,34.60
2017-06-26T11:38:17.363Z,34.60
2017-06-26T11:40:46.141Z,34.40
2017-06-26T11:43:15.251Z,35.10
2017-06-26T11:45:45.443Z,34.40
2017-06-26T11:48:13.753Z,34.30
2017-06-26T11:50:43.280Z,33.90
2017-06-26T11:53:12.689Z,34.30
2017-06-26T11:55:42.704Z,34.40
2017-06-26T11:58:12.181Z,34.40
2017-06-26T12:00:40.478Z,33.30
2017-06-26T12:03:08.985Z,33.90
2017-06-26T12:05:37.205Z,34.20
2017-06-26T12:08:05.520Z,32.30
2017-06-26T12:10:34.780Z,33.20
2017-06-26T12:13:05.021Z,33.90
2017-06-26T12:15:34.406Z,34.80
2017-06-26T12:18:03.611Z,35.00
2017-06-26T12:20:32.997Z,36.00
2017-06-26T12:23:02.420Z,35.70
2017-06-26T12:25:31.958Z,34.90
2017-06-26T12:28:01.882Z,35.70
2017-06-26T12:30:31.364Z,34.60
2017-06-26T12:33:00.571Z,35.30
2017-06-26T12:35:30.162Z,36.30
2017-06-26T12:38:00.276Z,34.80
2017-06-26T12:40:28.535Z,34.80
2017-06-26T12:42:56.739Z,35.10
2017-06-26T12:45:24.964Z,35.50
2017-06-26T12:47:54.383Z,34.00
2017-06-26T12:50:23.635Z,34.80
2017-06-26T12:52:53.064Z,34.90
2017-06-26T12:55:22.349Z,36.70
2017-06-26T12:57:51.735Z,34.90
2017-06-26T13:00:20.018Z,35.50
2017-06-26T13:02:48.233Z,37.40
2017-06-26T13:05:16.658Z,36.90
2017-06-26T13:07:44.840Z,36.10
2017-06-26T13:10:13.080Z,36.30
2017-06-26T13:12:41.335Z,37.10
2017-06-26T13:15:09.494Z,38.70
2017-06-26T13:17:37.700Z,37.70
2017-06-26T13:20:06.805Z,37.70
2017-06-26T13:22:35.057Z,37.70
2017-06-26T13:25:03.282Z,37.90
2017-06-26T13:27:31.497Z,37.50
2017-06-26T13:29:59.703Z,38.50
2017-06-26T13:32:28.072Z,37.90
2017-06-26T13:34:56.245Z,38.60
2017-06-26T13:37:25.238Z,37.30
2017-06-26T13:39:53.635Z,37.00
2017-06-26T13:42:22.725Z,37.60
2017-06-26T13:44:51.001Z,37.50
2017-06-26T13:47:19.958Z,38.20
2017-06-26T13:49:48.167Z,38.10
2017-06-26T13:52:17.136Z,39.10
2017-06-26T13:54:45.357Z,39.20
2017-06-26T13:57:13.560Z,40.50
2017-06-26T13:59:41.764Z,40.90
2017-06-26T14:02:10.005Z,40.80
2017-06-26T14:04:38.201Z,40.60
2017-06-26T14:07:06.431Z,41.30
2017-06-26T14:09:34.645Z,41.50
2017-06-26T14:12:02.884Z,41.90
2017-06-26T14:14:31.160Z,40.20
2017-06-26T14:17:00.167Z,40.90
2017-06-26T14:19:28.382Z,40.80
2017-06-26T14:21:56.599Z,41.20
2017-06-26T14:24:25.580Z,39.80
2017-06-26T14:26:53.794Z,39.80
2017-06-26T14:29:22.001Z,40.30
2017-06-26T14:31:50.207Z,39.40
2017-06-26T14:34:18.424Z,40.60
2017-06-26T14:36:46.627Z,40.50
2017-06-26T14:39:14.850Z,40.30
2017-06-26T14:41:43.066Z,40.00
2017-06-26T14:44:11.289Z,39.60
2017-06-26T14:46:39.497Z,39.20
2017-06-26T14:49:08.474Z,40.40
2017-06-26T14:51:36.691Z,40.40
2017-06-26T14:54:04.891Z,42.00
2017-06-26T14:56:33.094Z,42.00
2017-06-26T14:59:01.339Z,42.70
2017-06-26T15:01:29.575Z,41.00
2017-06-26T15:03:58.560Z,41.60
2017-06-26T15:06:26.754Z,41.30
2017-06-26T15:08:55.737Z,40.30
2017-06-26T15:11:23.941Z,40.30
2017-06-26T15:13:52.485Z,40.00
2017-06-26T15:16:20.698Z,40.70
2017-06-26T15:18:48.936Z,40.10
2017-06-26T15:21:17.138Z,40.50
2017-06-26T15:23:45.544Z,40.70
2017-06-26T15:26:14.025Z,41.00
2017-06-26T15:28:42.183Z,39.10
2017-06-26T15:31:10.412Z,40.00
2017-06-26T15:33:38.861Z,40.50
2017-06-26T15:36:07.102Z,40.40
2017-06-26T15:38:35.313Z,39.80
2017-06-26T15:41:03.543Z,40.10
2017-06-26T15:43:31.886Z,41.70
2017-06-26T15:46:00.885Z,41.60
2017-06-26T15:48:29.072Z,41.60
2017-06-26T15:50:57.334Z,41.20
2017-06-26T15:53:25.629Z,41.70
2017-06-26T15:55:53.828Z,41.00
2017-06-26T15:58:22.076Z,42.00
2017-06-26T16:00:50.438Z,41.80
2017-06-26T16:03:18.730Z,41.40
2017-06-26T16:05:46.943Z,41.20
2017-06-26T16:08:15.276Z,41.10
2017-06-26T16:10:44.279Z,42.40
2017-06-26T16:13:12.502Z,42.30
2017-06-26T16:15:40.780Z,41.40
2017-06-26T16:18:08.987Z,40.10
2017-06-26T16:20:37.302Z,41.20
2017-06-26T16:23:05.555Z,41.30
2017-06-26T16:25:33.888Z,41.90
2017-06-26T16:28:02.129Z,41.20
2017-06-26T16:30:30.322Z,41.50
2017-06-26T16:32:58.609Z,42.40
2017-06-26T16:35:26.858Z,41.90
2017-06-26T16:37:55.070Z,41.30
2017-06-26T16:40:23.247Z,41.40
2017-06-26T16:42:51.460Z,42.30
2017-06-26T16:45:19.678Z,41.60
2017-06-26T16:47:47.897Z,41.90
2017-06-26T16:50:16.136Z,41.50
2017-06-26T16:52:44.403Z,42.40
2017-06-26T16:55:13.385Z,42.30
2017-06-26T16:57:41.613Z,42.30
2017-06-26T17:00:09.857Z,42.50
2017-06-26T17:02:38.146Z,43.50
2017-06-26T17:05:06.434Z,43.60
2017-06-26T17:07:35.381Z,43.70
2017-06-26T17:10:03.658Z,43.70
2017-06-26T17:12:31.855Z,44.10
2017-06-26T17:15:00.080Z,44.10
2017-06-26T17:17:28.401Z,44.90
2017-06-26T17:19:56.681Z,45.60
2017-06-26T17:22:25.670Z,46.70
2017-06-26T17:24:53.892Z,46.70
2017-06-26T17:27:22.120Z,46.40
2017-06-26T17:29:50.401Z,46.30
2017-06-26T17:32:19.371Z,46.80
2017-06-26T17:34:47.646Z,47.20
2017-06-26T17:37:15.865Z,47.30
2017-06-26T17:39:44.889Z,47.70
2017-06-26T17:42:13.097Z,47.70
2017-06-26T17:44:41.317Z,47.90
2017-06-26T17:47:09.551Z,48.10
2017-06-26T17:49:37.746Z,48.50
2017-06-26T17:52:06.017Z,48.40
2017-06-26T17:54:34.281Z,47.50
2017-06-26T17:57:02.548Z,47.50
2017-06-26T17:59:30.847Z,47.00
2017-06-26T18:01:59.075Z,46.90
2017-06-26T18:04:27.297Z,47.10
2017-06-26T18:06:55.525Z,47.50
2017-06-26T18:09:23.825Z,47.80
2017-06-26T18:11:52.050Z,47.80
2017-06-26T18:14:20.259Z,48.30
2017-06-26T18:16:49.259Z,48.20
2017-06-26T18:19:17.475Z,48.10
2017-06-26T18:21:45.723Z,48.60
2017-06-26T18:24:13.942Z,48.80
2017-06-26T18:26:42.149Z,49.60
2017-06-26T18:29:10.475Z,49.60
2017-06-26T18:31:38.693Z,50.30
2017-06-26T18:34:06.902Z,50.30
2017-06-26T18:36:35.283Z,50.50
2017-06-26T18:39:03.650Z,51.10
2017-06-26T18:41:31.857Z,50.60
2017-06-26T18:44:00.063Z,50.70
2017-06-26T18:46:28.259Z,50.80
2017-06-26T18:48:56.498Z,50.90
2017-06-26T18:51:24.779Z,51.10
2017-06-26T18:53:52.966Z,51.20
2017-06-26T18:56:21.193Z,51.50
2017-06-26T18:58:49.575Z,51.50
2017-06-26T19:01:17.805Z,52.00
2017-06-26T19:03:46.013Z,52.10
2017-06-26T19:06:14.996Z,52.90
2017-06-26T19:08:43.330Z,52.30
2017-06-26T19:11:11.527Z,52.40
2017-06-26T19:13:39.733Z,53.00
2017-06-26T19:16:08.032Z,52.80
2017-06-26T19:18:36.249Z,53.10
2017-06-26T19:21:04.445Z,53.60
2017-06-26T19:23:32.665Z,53.70
2017-06-26T19:26:00.857Z,54.40
2017-06-26T19:28:29.065Z,54.70
2017-06-26T19:30:57.293Z,55.00
2017-06-26T19:33:25.505Z,55.40
2017-06-26T19:35:54.554Z,55.60
2017-06-26T19:38:22.777Z,55.80
2017-06-26T19:40:50.997Z,56.20
2017-06-26T19:43:19.200Z,56.30
2017-06-26T19:45:47.423Z,57.00
2017-06-26T19:48:15.835Z,56.90
2017-06-26T19:50:44.206Z,57.00
2017-06-26T19:53:13.081Z,56.90
2017-06-26T19:55:42.606Z,57.40
2017-06-26T19:58:12.040Z,57.20
2017-06-26T20:00:41.807Z,57.30
2017-06-26T20:03:11.261Z,57.30
2017-06-26T20:05:40.762Z,57.60
2017-06-26T20:08:10.439Z,57.80
2017-06-26T20:10:39.748Z,57.90
2017-06-26T20:13:08.029Z,58.20
2017-06-26T20:15:36.288Z,58.70
2017-06-26T20:18:04.529Z,59.20
2017-06-26T20:20:32.739Z,59.90
2017-06-26T20:23:01.042Z,59.30
2017-06-26T20:25:30.042Z,59.70
2017-06-26T20:27:58.229Z,59.60
2017-06-26T20:30:26.452Z,59.50
2017-06-26T20:32:54.674Z,59.30
2017-06-26T20:35:22.855Z,59.30
2017-06-26T20:37:51.074Z,59.80
2017-06-26T20:40:19.271Z,60.40
2017-06-26T20:42:47.490Z,60.00
2017-06-26T20:45:15.703Z,60.30
2017-06-26T20:47:43.907Z,60.90
2017-06-26T20:50:12.116Z,61.50
2017-06-26T20:52:40.399Z,61.00
2017-06-26T20:55:08.634Z,61.30
2017-06-26T20:57:36.836Z,62.20
2017-06-26T21:00:05.058Z,62.70
2017-06-26T21:02:33.269Z,63.10
2017-06-26T21:05:01.644Z,63.50
2017-06-26T21:07:29.977Z,63.40
2017-06-26T21:09:58.146Z,63.70
2017-06-26T21:12:26.375Z,63.40
2017-06-26T21:14:54.565Z,63.80
2017-06-26T21:17:22.951Z,64.10
2017-06-26T21:19:51.256Z,64.60
2017-06-26T21:22:19.541Z,63.40
2017-06-26T21:24:48.027Z,65.00
2017-06-26T21:27:16.218Z,64.70
2017-06-26T21:29:44.570Z,63.90
2017-06-26T21:32:12.840Z,63.70
2017-06-26T21:34:41.058Z,63.60
2017-06-26T21:37:09.406Z,63.20
2017-06-26T21:39:38.000Z,63.80
2017-06-26T21:42:06.430Z,64.10
2017-06-26T21:44:34.619Z,63.50
2017-06-26T21:47:02.912Z,64.00
2017-06-26T21:49:31.189Z,64.00
2017-06-26T21:51:59.482Z,64.30
2017-06-26T21:54:27.733Z,64.60
2017-06-26T21:56:56.712Z,64.30
2017-06-26T21:59:25.139Z,64.30
2017-06-26T22:01:53.350Z,64.80
2017-06-26T22:04:21.573Z,64.90
2017-06-26T22:06:49.818Z,65.10
2017-06-26T22:09:18.066Z,64.00
2017-06-26T22:11:46.296Z,63.20
2017-06-26T22:14:14.511Z,64.40
2017-06-26T22:16:42.885Z,64.10
2017-06-26T22:19:11.090Z,63.70
2017-06-26T22:21:39.599Z,64.10
2017-06-26T22:24:07.889Z,64.80
2017-06-26T22:26:36.089Z,65.70
2017-06-26T22:29:04.304Z,65.10
2017-06-26T22:31:32.495Z,65.10
2017-06-26T22:34:01.474Z,65.70
2017-06-26T22:36:29.683Z,65.70
2017-06-26T22:38:57.955Z,65.40
2017-06-26T22:41:26.932Z,65.60
2017-06-26T22:43:55.141Z,65.50
2017-06-26T22:46:23.374Z,65.70
2017-06-26T22:48:51.689Z,65.70
2017-06-26T22:51:19.959Z,66.10
2017-06-26T22:53:48.951Z,66.30
2017-06-26T22:56:17.149Z,66.30
2017-06-26T22:58:45.365Z,65.80
2017-06-26T23:01:13.582Z,65.40
2017-06-26T23:03:41.793Z,66.50
2017-06-26T23:06:10.030Z,67.00
2017-06-26T23:08:39.010Z,66.60
2017-06-26T23:11:07.251Z,66.60
2017-06-26T23:13:35.454Z,66.60
2017-06-26T23:16:03.651Z,66.60
2017-06-26T23:18:32.045Z,66.20
2017-06-26T23:21:00.257Z,65.90
2017-06-26T23:23:28.472Z,65.60
2017-06-26T23:25:56.678Z,66.90
2017-06-26T23:28:24.968Z,65.90
2017-06-26T23:30:53.227Z,66.20
2017-06-26T23:33:21.438Z,65.80
2017-06-26T23:35:49.653Z,65.90
2017-06-26T23:38:17.890Z,65.90
2017-06-26T23:40:46.104Z,65.00
2017-06-26T23:43:14.304Z,65.40
2017-06-26T23:45:42.677Z,64.70
2017-06-26T23:48:11.649Z,65.60
2017-06-26T23:50:39.865Z,65.60
2017-06-26T23:53:08.074Z,65.60
2017-06-26T23:55:36.283Z,65.80
2017-06-26T23:58:04.491Z,65.20
